Time;durP1;ratioP1;P1;durP2;ratioP2;P2;SDS_P1;SDS_P2;PMS_P1;PMS_P2;Temp;Humidity;BMP_temperature;BMP_pressure;BME280_temperature;BME280_humidity;BME280_pressure;Samples;Min_cycle;Max_cycle;Signal;HPM_P1;HPM_P2
2021/01/25 00:01:59;;;;;;;;;;;;;;;0.93;69.69;95312.21;1827282;78;25852;-82
2021/01/25 00:04:26;;;;;;;;;;;;;;;0.90;69.63;95314.45;1805054;78;25932;-87
2021/01/25 00:06:53;;;;;;;;;;;;;;;0.79;69.61;95309.22;1828294;78;25741;-86
2021/01/25 00:09:20;;;;;;;;;;;;;;;0.76;69.83;95309.62;1827969;78;28413;-82
2021/01/25 00:11:48;;;;;;;;;;;;;;;0.82;70.06;95310.16;1827535;78;26235;-84
2021/01/25 00:14:15;;;;;;;;;;;;;;;0.83;70.10;95309.14;1827275;78;25930;-86
2021/01/25 00:16:42;;;;;;;;;;;;;;;0.83;70.13;95308.31;1813680;78;26073;-84
2021/01/25 00:19:09;;;;;;;;;;;;;;;0.77;69.99;95303.80;1795279;78;25838;-87
2021/01/25 00:21:37;;;;;;;;;;;;;;;0.69;70.10;95306.96;1795256;78;27545;-81
2021/01/25 00:24:04;;;;;;;;;;;;;;;0.64;70.09;95300.09;1822773;78;26208;-86
2021/01/25 00:26:31;;;;;;;;;;;;;;;0.66;70.22;95297.24;1816475;77;25771;-84
2021/01/25 00:28:58;;;;;;;;;;;;;;;0.68;70.30;95300.52;1795346;78;25720;-84
2021/01/25 00:31:25;;;;;;;;;;;;;;;0.75;70.47;95308.48;1795252;78;25284;-84
2021/01/25 00:33:52;;;;;;;;;;;;;;;0.78;70.51;95303.59;1819789;78;28466;-83
2021/01/25 00:36:19;;;;;;;;;;;;;;;0.78;70.48;95303.59;1823379;78;25902;-85
2021/01/25 00:38:46;;;;;;;;;;;;;;;0.76;70.47;95302.98;1827826;78;25789;-87
2021/01/25 00:41:14;;;;;;;;;;;;;;;0.74;70.50;95297.05;1827538;78;25846;-82
2021/01/25 00:43:41;;;;;;;;;;;;;;;0.77;70.62;95304.62;1819734;78;25751;-86
2021/01/25 00:46:07;;;;;;;;;;;;;;;0.80;70.72;95304.22;1822200;78;27495;-85
2021/01/25 00:48:35;;;;;;;;;;;;;;;0.82;70.74;95302.19;1816058;78;26053;-84
2021/01/25 00:51:03;;;;;;;;;;;;;;;0.86;70.69;95305.23;1819798;78;25686;-84
2021/01/25 00:53:30;;;;;;;;;;;;;;;0.86;70.63;95298.59;1795210;78;26749;-85
2021/01/25 00:55:57;;;;;;;;;;;;;;;0.85;70.68;95299.10;1821084;78;25856;-82
2021/01/25 00:58:24;;;;;;;;;;;;;;;0.87;70.74;95296.25;1814717;78;28441;-85
2021/01/25 01:00:51;;;;;;;;;;;;;;;0.87;70.66;95287.77;1795439;78;25727;-86
2021/01/25 01:03:18;;;;;;;;;;;;;;;0.93;70.68;95293.61;1824150;78;25788;-87
2021/01/25 01:05:45;;;;;;;;;;;;;;;0.94;70.65;95283.30;1795897;78;26074;-84
2021/01/25 01:08:13;;;;;;;;;;;;;;;0.93;70.65;95284.31;1811962;78;26282;-84
2021/01/25 01:10:39;;;;;;;;;;;;;;;0.91;70.63;95282.37;1824727;78;27518;-86
2021/01/25 01:13:07;;;;;;;;;;;;;;;0.91;70.71;95279.71;1796634;77;26253;-83
2021/01/25 01:15:34;;;;;;;;;;;;;;;0.91;70.75;95285.03;1796175;78;26492;-85
2021/01/25 01:18:02;;;;;;;;;;;;;;;0.87;70.75;95279.80;1796014;78;25862;-86
2021/01/25 01:20:29;;;;;;;;;;;;;;;0.85;70.84;95283.16;1796089;78;25825;-87
2021/01/25 01:22:56;;;;;;;;;;;;;;;0.88;70.99;95279.30;1796352;78;27542;-88
2021/01/25 01:25:23;;;;;;;;;;;;;;;0.91;70.94;95275.73;1795928;78;25761;-87
2021/01/25 01:27:50;;;;;;;;;;;;;;;0.90;70.92;95274.09;1796148;78;25827;-84
2021/01/25 01:30:17;;;;;;;;;;;;;;;0.86;70.99;95271.52;1812468;78;26739;-87
2021/01/25 01:32:45;;;;;;;;;;;;;;;0.86;71.09;95276.02;1824598;77;25711;-86
2021/01/25 01:35:11;;;;;;;;;;;;;;;0.85;71.17;95264.58;1824409;77;28519;-83
2021/01/25 01:37:38;;;;;;;;;;;;;;;0.83;71.18;95267.97;1828145;77;26315;-87
2021/01/25 01:40:10;;;;;;;;;;;;;;;0.82;71.25;95267.66;1828033;78;25729;-83
2021/01/25 01:42:38;;;;;;;;;;;;;;;0.81;71.21;95272.66;1796475;78;25811;-83
2021/01/25 01:45:07;;;;;;;;;;;;;;;0.75;71.22;95260.69;1796269;78;25872;-87
2021/01/25 01:47:35;;;;;;;;;;;;;;;0.64;71.20;95260.27;1796167;78;27599;-83
2021/01/25 01:50:04;;;;;;;;;;;;;;;0.69;71.49;95268.97;1796076;78;25763;-81
2021/01/25 01:52:31;;;;;;;;;;;;;;;0.73;71.57;95271.50;1828080;78;25712;-83
2021/01/25 01:55:00;;;;;;;;;;;;;;;0.71;71.62;95276.23;1799740;78;25858;-82
2021/01/25 01:57:29;;;;;;;;;;;;;;;0.64;71.57;95276.70;1796817;78;26189;-84
2021/01/25 01:59:56;;;;;;;;;;;;;;;0.65;71.71;95284.98;1802992;78;28963;-85
2021/01/25 02:02:23;;;;;;;;;;;;;;;0.64;71.66;95284.67;1816856;77;25742;-83
2021/01/25 02:04:51;;;;;;;;;;;;;;;0.64;71.73;95286.00;1813929;78;25649;-82
2021/01/25 02:07:18;;;;;;;;;;;;;;;0.64;71.80;95281.51;1810933;78;25853;-82
2021/01/25 02:09:47;;;;;;;;;;;;;;;0.72;71.81;95291.14;1826518;77;25845;-82
2021/01/25 02:12:16;;;;;;;;;;;;;;;0.77;71.86;95285.20;1825322;78;26723;-82
2021/01/25 02:14:43;;;;;;;;;;;;;;;0.79;71.86;95281.33;1802305;77;26340;-85
2021/01/25 02:17:13;;;;;;;;;;;;;;;0.74;71.84;95286.42;1796271;78;25671;-85
2021/01/25 02:19:43;;;;;;;;;;;;;;;0.72;71.88;95283.17;1804043;78;26988;-82
2021/01/25 02:22:32;;;;;;;;;;;;;;;0.70;71.95;95286.03;1828120;77;25770;-85
2021/01/25 02:25:18;;;;;;;;;;;;;;;0.67;72.07;95288.26;1811170;78;28520;-83
2021/01/25 02:27:45;;;;;;;;;;;;;;;0.66;72.14;95293.26;1824527;77;25909;-86
2021/01/25 02:30:14;;;;;;;;;;;;;;;0.69;72.23;95299.00;1796837;78;25738;-83
2021/01/25 02:32:42;;;;;;;;;;;;;;;0.75;72.28;95300.52;1817708;78;25825;-86
2021/01/25 02:35:12;;;;;;;;;;;;;;;0.75;72.24;95297.36;1828195;77;25741;-84
2021/01/25 02:37:40;;;;;;;;;;;;;;;0.79;72.24;95295.94;1803335;78;27527;-83
2021/01/25 02:40:10;;;;;;;;;;;;;;;0.81;72.24;95291.25;1796106;78;26297;-85
2021/01/25 02:42:38;;;;;;;;;;;;;;;0.84;72.29;95297.50;1796176;78;26250;-85
2021/01/25 02:45:07;;;;;;;;;;;;;;;0.77;72.26;95289.19;1796033;78;25821;-85
2021/01/25 02:47:35;;;;;;;;;;;;;;;0.73;72.43;95286.93;1796095;78;25842;-84
2021/01/25 02:50:03;;;;;;;;;;;;;;;0.71;72.49;95288.17;1808820;77;27492;-85
2021/01/25 02:52:30;;;;;;;;;;;;;;;0.73;72.62;95292.75;1796194;78;26133;-84
2021/01/25 02:54:57;;;;;;;;;;;;;;;0.74;72.68;95286.42;1807800;78;25845;-86
2021/01/25 02:57:24;;;;;;;;;;;;;;;0.75;72.75;95284.59;1806873;78;26251;-85
2021/01/25 02:59:52;;;;;;;;;;;;;;;0.70;72.83;95295.83;1796002;78;25356;-87
2021/01/25 03:02:19;;;;;;;;;;;;;;;0.70;72.94;95294.50;1796075;78;27484;-84
2021/01/25 03:04:46;;;;;;;;;;;;;;;0.75;73.09;95294.70;1795829;78;26024;-82
2021/01/25 03:07:13;;;;;;;;;;;;;;;0.73;73.08;95294.08;1797510;78;25761;-86
2021/01/25 03:09:40;;;;;;;;;;;;;;;0.62;73.09;95303.96;1828127;78;26534;-83
2021/01/25 03:12:07;;;;;;;;;;;;;;;0.52;73.21;95303.03;1811338;77;25892;-85
2021/01/25 03:14:35;;;;;;;;;;;;;;;0.53;73.34;95305.17;1796132;78;27487;-83
2021/01/25 03:17:02;;;;;;;;;;;;;;;0.55;73.47;95298.66;1808876;78;25707;-83
2021/01/25 03:19:28;;;;;;;;;;;;;;;0.62;73.62;95302.64;1796167;78;25328;-85
2021/01/25 03:21:56;;;;;;;;;;;;;;;0.67;73.68;95297.05;1806699;78;26414;-85
2021/01/25 03:24:22;;;;;;;;;;;;;;;0.71;73.71;95297.47;1808145;78;25807;-85
2021/01/25 03:26:49;;;;;;;;;;;;;;;0.71;73.72;95292.98;1796078;78;27706;-83
2021/01/25 03:29:16;;;;;;;;;;;;;;;0.70;73.68;95295.83;1796137;78;25722;-84
2021/01/25 03:31:43;;;;;;;;;;;;;;;0.68;73.73;95300.02;1796102;78;25752;-85
2021/01/25 03:34:10;;;;;;;;;;;;;;;0.68;73.76;95299.19;1796205;78;25874;-84
2021/01/25 03:36:38;;;;;;;;;;;;;;;0.70;73.83;95296.65;1802047;78;25736;-86
2021/01/25 03:39:07;;;;;;;;;;;;;;;0.73;73.91;95302.05;1825923;78;27541;-85
2021/01/25 03:41:34;;;;;;;;;;;;;;;0.75;73.94;95293.88;1796166;78;25704;-86
2021/01/25 03:44:01;;;;;;;;;;;;;;;0.72;73.89;95288.48;1820708;78;25797;-86
2021/01/25 03:46:28;;;;;;;;;;;;;;;0.73;74.00;95292.75;1808052;78;26032;-84
2021/01/25 03:48:55;;;;;;;;;;;;;;;0.76;74.02;95284.39;1805613;78;26608;-86
2021/01/25 03:51:22;;;;;;;;;;;;;;;0.77;74.05;95287.35;1828109;77;27486;-85
2021/01/25 03:53:50;;;;;;;;;;;;;;;0.77;74.07;95287.35;1816679;77;25698;-85
2021/01/25 03:56:17;;;;;;;;;;;;;;;0.73;74.03;95287.44;1796928;78;25333;-84
2021/01/25 03:58:44;;;;;;;;;;;;;;;0.66;74.07;95285.30;1817863;78;26843;-84
2021/01/25 04:01:12;;;;;;;;;;;;;;;0.63;74.14;95285.69;1796121;78;25845;-84
2021/01/25 04:03:38;;;;;;;;;;;;;;;0.64;74.21;95283.34;1796182;78;27565;-83
2021/01/25 04:06:06;;;;;;;;;;;;;;;0.62;74.27;95290.69;1795553;78;25951;-84
2021/01/25 04:08:33;;;;;;;;;;;;;;;0.65;74.35;95289.78;1795413;78;25777;-85
2021/01/25 04:11:01;;;;;;;;;;;;;;;0.66;74.39;95290.61;1795337;78;25901;-85
2021/01/25 04:13:28;;;;;;;;;;;;;;;0.69;74.47;95292.86;1795283;78;25845;-83
2021/01/25 04:15:55;;;;;;;;;;;;;;;0.64;74.40;95287.33;1795385;78;27697;-85
2021/01/25 04:18:22;;;;;;;;;;;;;;;0.56;74.43;95284.36;1795151;78;26367;-83
2021/01/25 04:20:49;;;;;;;;;;;;;;;0.57;74.58;95286.51;1812209;78;25355;-85
2021/01/25 04:23:15;;;;;;;;;;;;;;;0.54;74.62;95284.25;1827647;77;26770;-85
2021/01/25 04:25:43;;;;;;;;;;;;;;;0.52;74.69;95283.63;1813369;77;25749;-81
2021/01/25 04:28:10;;;;;;;;;;;;;;;0.49;74.70;95280.03;1818149;78;27436;-83
2021/01/25 04:30:37;;;;;;;;;;;;;;;0.46;74.56;95274.64;1795220;78;26117;-83
2021/01/25 04:33:04;;;;;;;;;;;;;;;0.39;74.40;95274.30;1795328;78;25692;-82
2021/01/25 04:35:31;;;;;;;;;;;;;;;0.41;74.31;95274.92;1818192;78;26820;-81
2021/01/25 04:37:58;;;;;;;;;;;;;;;0.35;74.15;95277.38;1795142;78;25832;-82
2021/01/25 04:40:26;;;;;;;;;;;;;;;0.22;73.66;95273.35;1795208;78;28461;-82
2021/01/25 04:42:53;;;;;;;;;;;;;;;0.04;73.74;95273.06;1795153;78;26295;-83
2021/01/25 04:45:20;;;;;;;;;;;;;;;0.07;74.03;95264.72;1807374;78;26279;-81
2021/01/25 04:47:48;;;;;;;;;;;;;;;0.09;74.17;95268.00;1827708;78;26584;-83
2021/01/25 04:50:19;;;;;;;;;;;;;;;0.05;74.04;95264.09;1803386;78;25758;-82
2021/01/25 04:52:47;;;;;;;;;;;;;;;-0.03;74.03;95258.46;1807422;78;28434;-82
2021/01/25 04:55:15;;;;;;;;;;;;;;;-0.09;74.08;95265.87;1827707;77;26155;-83
2021/01/25 04:57:44;;;;;;;;;;;;;;;-0.10;74.15;95267.39;1805308;78;25349;-84
2021/01/25 05:00:12;;;;;;;;;;;;;;;-0.13;74.23;95267.30;1827856;77;25815;-82
2021/01/25 05:02:40;;;;;;;;;;;;;;;-0.21;74.03;95266.63;1796906;77;25782;-82
2021/01/25 05:05:09;;;;;;;;;;;;;;;-0.25;73.99;95270.70;1795176;78;27544;-82
2021/01/25 05:07:37;;;;;;;;;;;;;;;-0.31;74.14;95272.80;1784173;78;25803;-82
2021/01/25 05:10:06;;;;;;;;;;;;;;;-0.31;74.31;95274.94;1772943;79;25763;-82
2021/01/25 05:12:43;;;;;;;;;;;;;;;-0.31;74.35;95270.14;1772904;80;25855;-84
2021/01/25 05:15:11;;;;;;;;;;;;;;;-0.30;74.50;95270.46;1773024;80;26111;-85
2021/01/25 05:17:39;;;;;;;;;;;;;;;-0.24;74.58;95271.02;1793299;78;27479;-82
2021/01/25 05:20:08;;;;;;;;;;;;;;;-0.24;74.37;95267.04;1770231;79;25760;-85
2021/01/25 05:22:38;;;;;;;;;;;;;;;-0.24;74.36;95268.37;1793267;78;25862;-82
2021/01/25 05:25:09;;;;;;;;;;;;;;;-0.28;74.19;95265.28;1770400;78;27241;-85
2021/01/25 05:27:36;;;;;;;;;;;;;;;-0.26;74.23;95267.73;1793236;79;25759;-82
2021/01/25 05:30:09;;;;;;;;;;;;;;;-0.27;74.20;95267.42;1793203;79;27583;-82
2021/01/25 05:32:50;;;;;;;;;;;;;;;-0.25;74.24;95270.20;1794180;78;26129;-84
2021/01/25 05:35:29;;;;;;;;;;;;;;;-0.23;74.18;95265.49;1793407;79;25759;-85
2021/01/25 05:37:57;;;;;;;;;;;;;;;-0.22;74.19;95272.94;1794547;79;25893;-84
2021/01/25 05:40:26;;;;;;;;;;;;;;;-0.15;74.33;95269.33;1793436;78;25800;-83
2021/01/25 05:42:55;;;;;;;;;;;;;;;-0.20;74.09;95270.91;1776634;78;27487;-83
2021/01/25 05:45:24;;;;;;;;;;;;;;;-0.22;74.17;95270.28;1787915;80;25814;-84
2021/01/25 05:47:58;;;;;;;;;;;;;;;-0.24;74.06;95276.32;1789355;78;25791;-82
2021/01/25 05:50:40;;;;;;;;;;;;;;;-0.28;74.05;95269.77;1788564;79;26644;-83
2021/01/25 05:53:09;;;;;;;;;;;;;;;-0.28;74.23;95271.09;1792395;79;42752;-83
2021/01/25 05:55:37;;;;;;;;;;;;;;;-0.25;74.16;95282.13;1792627;79;27498;-83
2021/01/25 05:58:04;;;;;;;;;;;;;;;-0.24;74.28;95286.92;1795440;79;26366;-84
2021/01/25 06:00:34;;;;;;;;;;;;;;;-0.26;74.27;95279.67;1795527;79;26267;-82
2021/01/25 06:03:02;;;;;;;;;;;;;;;-0.23;74.32;95285.88;1795413;79;25733;-84
2021/01/25 06:05:40;;;;;;;;;;;;;;;-0.20;74.41;95291.63;1791276;79;25942;-83
2021/01/25 06:08:23;;;;;;;;;;;;;;;-0.17;74.49;95301.02;1758429;80;27494;-82
2021/01/25 06:11:11;;;;;;;;;;;;;;;-0.15;74.46;95301.66;1760439;80;25795;-84
2021/01/25 06:13:41;;;;;;;;;;;;;;;-0.11;74.51;95306.34;1771188;80;25744;-82
2021/01/25 06:16:10;;;;;;;;;;;;;;;-0.06;74.46;95304.44;1792004;78;27054;-84
2021/01/25 06:18:37;;;;;;;;;;;;;;;-0.03;74.48;95297.42;1771030;78;25703;-84
2021/01/25 06:21:05;;;;;;;;;;;;;;;-0.07;74.45;95304.13;1773959;80;27483;-85
2021/01/25 06:23:34;;;;;;;;;;;;;;;-0.13;74.45;95310.23;1792608;79;25675;-83
2021/01/25 06:26:01;;;;;;;;;;;;;;;-0.24;74.30;95312.11;1766941;80;25803;-83
2021/01/25 06:28:28;;;;;;;;;;;;;;;-0.19;74.48;95309.17;1760929;80;25976;-82
2021/01/25 06:30:56;;;;;;;;;;;;;;;-0.10;74.46;95301.86;1779240;80;26390;-83
2021/01/25 06:33:23;;;;;;;;;;;;;;;-0.08;74.46;95302.49;1783161;78;28474;-83
2021/01/25 06:35:52;;;;;;;;;;;;;;;-0.13;74.41;95307.08;1783906;78;26146;-83
2021/01/25 06:38:20;;;;;;;;;;;;;;;-0.14;74.55;95312.57;1761411;80;25698;-82
2021/01/25 06:40:49;;;;;;;;;;;;;;;-0.16;74.65;95305.31;1760635;80;26406;-83
2021/01/25 06:43:18;;;;;;;;;;;;;;;-0.13;74.76;95303.61;1760683;80;25822;-83
2021/01/25 06:45:47;;;;;;;;;;;;;;;-0.12;74.79;95300.73;1795493;78;27544;-83
2021/01/25 06:48:17;;;;;;;;;;;;;;;-0.14;74.74;95312.57;1790069;79;25681;-84
2021/01/25 06:50:49;;;;;;;;;;;;;;;-0.13;74.92;95313.70;1788474;79;25711;-83
2021/01/25 06:53:16;;;;;;;;;;;;;;;-0.16;74.91;95314.59;1786269;79;26763;-83
2021/01/25 06:55:44;;;;;;;;;;;;;;;-0.11;75.05;95308.18;1791984;78;25763;-84
2021/01/25 06:58:12;;;;;;;;;;;;;;;-0.08;75.04;95314.42;1771233;80;27466;-81
2021/01/25 07:00:40;;;;;;;;;;;;;;;-0.05;74.99;95319.34;1767375;79;26687;-83
2021/01/25 07:03:08;;;;;;;;;;;;;;;0.00;74.98;95312.95;1795230;79;25773;-82
2021/01/25 07:05:38;;;;;;;;;;;;;;;0.02;75.03;95316.20;1780443;79;25834;-84
2021/01/25 07:08:21;;;;;;;;;;;;;;;0.05;75.00;95321.13;1801699;78;25679;-83
2021/01/25 07:11:00;;;;;;;;;;;;;;;0.07;74.95;95320.42;1808249;77;28655;-82
2021/01/25 07:13:32;;;;;;;;;;;;;;;0.08;74.97;95323.39;1795175;78;25711;-83
2021/01/25 07:15:59;;;;;;;;;;;;;;;0.05;74.82;95319.80;1796740;78;26488;-85
2021/01/25 07:18:29;;;;;;;;;;;;;;;0.03;74.82;95328.45;1795368;78;26739;-83
2021/01/25 07:20:58;;;;;;;;;;;;;;;0.02;74.77;95338.75;1795419;78;26283;-82
2021/01/25 07:23:27;;;;;;;;;;;;;;;0.04;74.77;95338.05;1799634;78;30324;-84
2021/01/25 07:25:59;;;;;;;;;;;;;;;0.05;74.78;95338.37;1807753;78;25940;-84
2021/01/25 07:28:29;;;;;;;;;;;;;;;0.05;74.70;95339.69;1827246;77;25737;-83
2021/01/25 07:30:56;;;;;;;;;;;;;;;0.03;74.74;95339.57;1817150;78;25747;-82
2021/01/25 07:33:25;;;;;;;;;;;;;;;0.08;74.86;95326.55;1804801;78;25785;-83
2021/01/25 07:35:53;;;;;;;;;;;;;;;0.09;74.80;95331.66;1796776;78;27769;-84
2021/01/25 07:38:22;;;;;;;;;;;;;;;0.08;74.81;95327.88;1802044;78;25778;-84
2021/01/25 07:40:50;;;;;;;;;;;;;;;0.09;74.87;95338.30;1797216;77;25730;-83
2021/01/25 07:43:19;;;;;;;;;;;;;;;0.11;74.91;95338.10;1795378;78;26699;-84
2021/01/25 07:45:51;;;;;;;;;;;;;;;0.16;74.92;95338.31;1795874;78;26174;-86
2021/01/25 07:48:15;;;;;;;;;;;;;;;0.15;74.91;95337.49;1794961;78;27569;-83
2021/01/25 07:50:57;;;;;;;;;;;;;;;0.20;74.94;95340.39;1795393;78;26339;-85
2021/01/25 07:53:24;;;;;;;;;;;;;;;0.24;74.87;95335.52;1810180;78;25863;-85
2021/01/25 07:55:51;;;;;;;;;;;;;;;0.23;74.81;95334.69;1805858;78;25821;-83
2021/01/25 07:58:19;;;;;;;;;;;;;;;0.23;74.79;95332.04;1797805;78;25995;-84
2021/01/25 08:00:46;;;;;;;;;;;;;;;0.23;74.78;95333.88;1801820;78;27543;-83
2021/01/25 08:03:23;;;;;;;;;;;;;;;0.23;74.80;95332.55;1807042;78;26423;-84
2021/01/25 08:05:53;;;;;;;;;;;;;;;0.21;74.76;95331.92;1808682;78;25675;-84
2021/01/25 08:08:21;;;;;;;;;;;;;;;0.21;74.78;95339.38;1800358;77;25859;-83
2021/01/25 08:10:49;;;;;;;;;;;;;;;0.21;74.80;95335.39;1800692;78;25759;-83
2021/01/25 08:13:17;;;;;;;;;;;;;;;0.20;74.83;95333.75;1796423;78;27493;-84
2021/01/25 08:16:13;;;;;;;;;;;;;;;0.18;74.81;95339.76;1826997;78;25702;-84
2021/01/25 08:18:53;;;;;;;;;;;;;;;0.17;74.79;95336.80;1808804;78;25667;-83
2021/01/25 08:24:07;;;;;;;;;;;;;;;0.26;74.90;95334.78;1875615;76;25731;-83
2021/01/25 08:26:34;;;;;;;;;;;;;;;0.22;74.88;95338.87;1851796;77;25704;-84
2021/01/25 08:29:03;;;;;;;;;;;;;;;0.23;74.90;95334.69;1819173;77;27491;-84
2021/01/25 08:31:39;;;;;;;;;;;;;;;0.25;74.91;95337.13;1837430;77;25773;-84
2021/01/25 08:34:25;;;;;;;;;;;;;;;0.26;74.90;95332.95;1830616;77;25807;-83
2021/01/25 08:36:59;;;;;;;;;;;;;;;0.29;74.93;95339.19;1823889;77;25781;-84
2021/01/25 08:39:34;;;;;;;;;;;;;;;0.27;74.81;95335.91;1848128;77;25532;-83
2021/01/25 08:42:03;;;;;;;;;;;;;;;0.26;74.89;95332.95;1855231;77;27487;-85
2021/01/25 08:44:30;;;;;;;;;;;;;;;0.20;74.82;95340.39;1818325;76;25763;-84
2021/01/25 08:47:06;;;;;;;;;;;;;;;0.20;74.95;95341.71;1818562;77;25800;-84
2021/01/25 08:49:36;;;;;;;;;;;;;;;0.20;75.01;95337.73;1816103;77;25796;-84
2021/01/25 08:52:23;;;;;;;;;;;;;;;0.25;75.12;95335.28;1825131;77;25804;-85
2021/01/25 08:54:50;;;;;;;;;;;;;;;0.29;75.12;95333.89;1839676;77;27469;-84
2021/01/25 08:57:23;;;;;;;;;;;;;;;0.31;75.09;95343.80;1798905;77;26154;-85
2021/01/25 08:59:50;;;;;;;;;;;;;;;0.31;75.10;95343.80;1843230;77;25807;-85
2021/01/25 09:02:23;;;;;;;;;;;;;;;0.29;75.09;95343.17;1840278;77;25862;-85
2021/01/25 09:04:53;;;;;;;;;;;;;;;0.27;75.10;95346.53;1829205;77;26214;-85
2021/01/25 09:07:23;;;;;;;;;;;;;;;0.24;75.06;95349.56;1830793;77;27500;-85
2021/01/25 09:09:50;;;;;;;;;;;;;;;0.20;75.11;95352.33;1855001;76;26529;-85
2021/01/25 09:12:19;;;;;;;;;;;;;;;0.19;75.20;95354.66;1844295;77;25842;-84
2021/01/25 09:14:47;;;;;;;;;;;;;;;0.20;75.22;95353.66;1844307;77;25839;-85
2021/01/25 09:17:15;;;;;;;;;;;;;;;0.21;75.30;95357.95;1840541;77;25760;-85
2021/01/25 09:19:43;;;;;;;;;;;;;;;0.24;75.27;95354.88;1837877;77;27781;-84
2021/01/25 09:22:13;;;;;;;;;;;;;;;0.28;75.32;95358.78;1853037;76;26131;-85
2021/01/25 09:24:41;;;;;;;;;;;;;;;0.26;75.30;95359.48;1853834;77;25772;-84
2021/01/25 09:27:09;;;;;;;;;;;;;;;0.26;75.31;95366.63;1848185;77;25812;-81
2021/01/25 09:29:37;;;;;;;;;;;;;;;0.29;75.40;95357.77;1857633;77;25681;-81
2021/01/25 09:32:06;;;;;;;;;;;;;;;0.31;75.37;95360.23;1858272;77;28881;-84
2021/01/25 09:34:34;;;;;;;;;;;;;;;0.33;75.35;95360.86;1842216;77;25719;-84
2021/01/25 09:37:03;;;;;;;;;;;;;;;0.39;75.56;95366.69;1839372;77;25792;-84
2021/01/25 09:39:30;;;;;;;;;;;;;;;0.44;75.51;95362.13;1843618;77;26602;-84
2021/01/25 09:41:57;;;;;;;;;;;;;;;0.50;75.51;95359.98;1836624;77;26309;-84
2021/01/25 09:44:24;;;;;;;;;;;;;;;0.54;75.38;95366.03;1842375;77;27552;-84
2021/01/25 09:46:52;;;;;;;;;;;;;;;0.34;75.11;95363.31;1851020;77;25899;-83
2021/01/25 09:49:20;;;;;;;;;;;;;;;0.30;75.36;95363.89;1837599;77;25780;-84
2021/01/25 09:51:47;;;;;;;;;;;;;;;0.34;75.48;95367.30;1844772;77;25870;-83
2021/01/25 09:54:15;;;;;;;;;;;;;;;0.33;75.45;95367.49;1841881;77;25742;-83
2021/01/25 09:56:42;;;;;;;;;;;;;;;0.31;75.57;95366.36;1847583;77;27482;-84
2021/01/25 09:59:10;;;;;;;;;;;;;;;0.35;75.59;95366.79;1847730;77;25775;-83
2021/01/25 10:01:38;;;;;;;;;;;;;;;0.41;75.66;95370.47;1847830;77;25906;-83
2021/01/25 10:04:05;;;;;;;;;;;;;;;0.39;75.56;95373.32;1837844;77;25660;-83
2021/01/25 10:06:32;;;;;;;;;;;;;;;0.29;75.52;95369.70;1825983;77;25908;-84
2021/01/25 10:09:00;;;;;;;;;;;;;;;0.28;75.62;95369.40;1824350;77;28473;-82
2021/01/25 10:11:27;;;;;;;;;;;;;;;0.35;75.75;95378.23;1847830;77;25620;-82
2021/01/25 10:13:55;;;;;;;;;;;;;;;0.42;75.80;95386.20;1824508;77;26411;-82
2021/01/25 10:16:23;;;;;;;;;;;;;;;0.48;75.79;95381.95;1824409;77;26406;-83
2021/01/25 10:18:51;;;;;;;;;;;;;;;0.48;75.75;95376.64;1827541;77;25809;-82
2021/01/25 10:21:18;;;;;;;;;;;;;;;0.50;75.71;95379.39;1854099;77;27561;-81
2021/01/25 10:23:47;;;;;;;;;;;;;;;0.50;75.70;95385.20;1851721;77;25705;-82
2021/01/25 10:26:15;;;;;;;;;;;;;;;0.52;75.70;95383.17;1850770;77;25719;-81
2021/01/25 10:28:42;;;;;;;;;;;;;;;0.49;75.69;95387.03;1850262;77;25776;-82
2021/01/25 10:31:09;;;;;;;;;;;;;;;0.53;75.75;95388.80;1842933;77;25817;-81
2021/01/25 10:33:36;;;;;;;;;;;;;;;0.58;75.75;95387.70;1820937;77;27493;-81
2021/01/25 10:36:04;;;;;;;;;;;;;;;0.51;75.57;95386.34;1820808;77;25815;-83
2021/01/25 10:38:31;;;;;;;;;;;;;;;0.46;75.66;95382.14;1844450;77;25373;-81
2021/01/25 10:40:58;;;;;;;;;;;;;;;0.42;75.71;95383.55;1825245;77;25812;-82
2021/01/25 10:43:25;;;;;;;;;;;;;;;0.45;75.82;95385.00;1839667;77;25893;-83
2021/01/25 10:45:53;;;;;;;;;;;;;;;0.50;75.91;95385.20;1822527;77;27428;-83
2021/01/25 10:48:20;;;;;;;;;;;;;;;0.55;76.02;95380.95;1854169;77;26222;-83
2021/01/25 10:50:47;;;;;;;;;;;;;;;0.60;75.94;95380.37;1854309;77;25871;-83
2021/01/25 10:53:15;;;;;;;;;;;;;;;0.56;75.72;95376.46;1824516;77;25721;-82
2021/01/25 10:55:42;;;;;;;;;;;;;;;0.43;75.78;95380.39;1822473;77;25836;-82
2021/01/25 10:58:09;;;;;;;;;;;;;;;0.38;75.84;95373.00;1821368;77;27726;-83
2021/01/25 11:00:36;;;;;;;;;;;;;;;0.38;76.03;95378.31;1820771;77;25729;-83
2021/01/25 11:03:04;;;;;;;;;;;;;;;0.46;76.16;95371.53;1820815;77;25811;-82
2021/01/25 11:05:31;;;;;;;;;;;;;;;0.60;76.18;95375.06;1822143;77;25744;-82
2021/01/25 11:07:58;;;;;;;;;;;;;;;0.55;75.92;95370.84;1850736;77;26051;-83
2021/01/25 11:10:27;;;;;;;;;;;;;;;0.54;75.92;95373.18;1847577;77;28652;-83
2021/01/25 11:12:55;;;;;;;;;;;;;;;0.62;76.01;95378.30;1847204;77;25843;-83
2021/01/25 11:15:23;;;;;;;;;;;;;;;0.66;76.10;95383.53;1854258;77;25728;-82
2021/01/25 11:17:51;;;;;;;;;;;;;;;0.72;76.00;95384.09;1854156;77;25760;-82
2021/01/25 11:20:19;;;;;;;;;;;;;;;0.77;76.04;95381.63;1852898;77;25795;-83
2021/01/25 11:22:46;;;;;;;;;;;;;;;0.78;75.92;95385.92;1827604;77;27594;-82
2021/01/25 11:25:14;;;;;;;;;;;;;;;0.78;75.78;95387.25;1829422;77;25428;-82
2021/01/25 11:27:41;;;;;;;;;;;;;;;0.69;75.79;95381.82;1835805;77;25724;-82
2021/01/25 11:30:10;;;;;;;;;;;;;;;0.75;75.86;95384.17;1833350;77;25788;-83
2021/01/25 11:32:38;;;;;;;;;;;;;;;0.76;75.87;95383.98;1832325;77;26532;-82
2021/01/25 11:35:06;;;;;;;;;;;;;;;0.79;75.93;95385.42;1842474;77;28507;-82
2021/01/25 11:37:34;;;;;;;;;;;;;;;0.76;75.87;95386.62;1845157;77;26279;-82
2021/01/25 11:40:01;;;;;;;;;;;;;;;0.77;75.91;95386.94;1845336;77;25884;-81
2021/01/25 11:42:29;;;;;;;;;;;;;;;0.78;75.89;95389.09;1845095;77;25827;-81
2021/01/25 11:44:56;;;;;;;;;;;;;;;0.68;75.77;95396.11;1805322;77;25870;-82
2021/01/25 11:47:23;;;;;;;;;;;;;;;0.65;75.83;95395.17;1793944;77;27488;-82
2021/01/25 11:49:50;;;;;;;;;;;;;;;0.67;76.00;95396.63;1829454;77;25837;-82
2021/01/25 11:52:18;;;;;;;;;;;;;;;0.75;76.06;95394.28;1826833;77;25738;-82
2021/01/25 11:54:45;;;;;;;;;;;;;;;0.81;76.11;95393.50;1831237;77;25740;-82
2021/01/25 11:57:12;;;;;;;;;;;;;;;0.78;75.91;95393.08;1816045;77;25804;-83
2021/01/25 11:59:39;;;;;;;;;;;;;;;0.76;75.86;95395.92;1816469;77;27710;-82
2021/01/25 12:02:07;;;;;;;;;;;;;;;0.77;75.98;95398.08;1830492;77;26064;-83
2021/01/25 12:04:34;;;;;;;;;;;;;;;0.80;76.07;95393.19;1842981;77;25742;-83
2021/01/25 12:07:01;;;;;;;;;;;;;;;0.83;76.02;95402.09;1837472;77;25744;-82
2021/01/25 12:09:28;;;;;;;;;;;;;;;0.85;76.07;95394.72;1830835;77;25725;-82
2021/01/25 12:11:56;;;;;;;;;;;;;;;0.85;76.08;95394.72;1825616;77;28388;-82
2021/01/25 12:14:22;;;;;;;;;;;;;;;0.88;76.08;95399.64;1837805;77;26115;-80
2021/01/25 12:16:50;;;;;;;;;;;;;;;0.83;76.01;95399.44;1831246;77;25798;-80
2021/01/25 12:19:17;;;;;;;;;;;;;;;0.88;76.05;95398.82;1836073;77;25777;-82
2021/01/25 12:21:45;;;;;;;;;;;;;;;0.81;75.97;95400.66;1812306;77;25832;-81
2021/01/25 12:24:12;;;;;;;;;;;;;;;0.84;76.06;95411.70;1833715;77;28241;-81
2021/01/25 12:26:39;;;;;;;;;;;;;;;0.85;75.98;95396.55;1821894;77;25743;-81
2021/01/25 12:29:07;;;;;;;;;;;;;;;0.87;76.02;95403.31;1845385;77;25331;-81
2021/01/25 12:31:34;;;;;;;;;;;;;;;0.82;75.83;95413.73;1844773;77;25732;-81
2021/01/25 12:34:02;;;;;;;;;;;;;;;0.82;76.00;95419.05;1832356;77;25709;-82
2021/01/25 12:36:29;;;;;;;;;;;;;;;0.84;75.94;95413.03;1819693;77;27494;-81
2021/01/25 12:38:57;;;;;;;;;;;;;;;0.84;75.92;95416.20;1843849;77;26206;-81
2021/01/25 12:41:25;;;;;;;;;;;;;;;0.74;75.84;95423.19;1844418;77;25739;-81
2021/01/25 12:43:53;;;;;;;;;;;;;;;0.77;76.03;95417.99;1835676;77;26312;-81
2021/01/25 12:46:23;;;;;;;;;;;;;;;0.83;76.09;95431.31;1829755;77;25729;-82
2021/01/25 12:48:50;;;;;;;;;;;;;;;0.85;76.04;95430.58;1828496;77;27481;-81
2021/01/25 12:51:18;;;;;;;;;;;;;;;0.77;75.80;95429.44;1828584;77;25709;-82
2021/01/25 12:53:45;;;;;;;;;;;;;;;0.76;75.94;95433.11;1816604;77;25708;-81
2021/01/25 12:56:13;;;;;;;;;;;;;;;0.82;76.05;95442.95;1826648;77;25793;-82
2021/01/25 12:58:40;;;;;;;;;;;;;;;0.88;76.07;95442.14;1839733;77;25761;-81
2021/01/25 13:01:07;;;;;;;;;;;;;;;0.88;75.89;95442.14;1827043;77;27494;-82
2021/01/25 13:03:34;;;;;;;;;;;;;;;0.88;75.79;95455.42;1834224;77;25732;-82
2021/01/25 13:06:02;;;;;;;;;;;;;;;0.82;75.78;95453.58;1836091;77;25618;-82